aviador You're here:

KMHE Decoded Metar

MITCHELL in SD, USA
Report Time2018-04-26 12:53:00
UTC Time2018-04-26 13:10:09
Flight Rules vfr VFR
Wind340° at 16 Gusting to 25 kt
W.Decomp.*RWY 35: 15.3 kt HW 4.7 kt LCW
RWY 30: 13.4 kt HW 8.7 kt RCW
W.Rank340° ranks 7
Current wind is above 340° avg. (11.5)
Visibility9999 m
Phenomena:N/A
Clouds:Few 120 Hf
Expected CloudBase > 2,000 ft AGL from Temp-Dew spread
CeilingNone
Temp08°C (ISA -4)
Dew Point03°C (71% RH)
AAT0.7°C
QNH1014 hPa
Density Alt846 ft
Elevation1,302 ft
Report Wrong Elevation
Raw Report
KMHE 261253Z AUTO 34016G25KT 10SM FEW120 08/03 A2993 RMK AO2 PK
WND 33027/1215 SLP139 T00780028=

Extra information for KMHE:More info

Metar Taf Metar & Taf Last 4 Metars F.Rules Stats Wind Profile Meteogram Temp Stats Airport Information Weather charts Add Link Nearby VenuesMetar ALERT Operation Metar Decoded Social comments

AIRNAV info for KMHE